createdAt,value
2019-04-28T00:01:14.581Z,81.80
2019-04-28T00:03:43.492Z,81.90
2019-04-28T00:06:12.412Z,81.90
2019-04-28T00:08:42.879Z,82.20
2019-04-28T00:11:12.079Z,83.90
2019-04-28T00:13:41.777Z,84.10
2019-04-28T00:16:11.557Z,85.50
2019-04-28T00:18:41.552Z,85.50
2019-04-28T00:21:23.308Z,84.40
2019-04-28T00:24:11.442Z,84.80
2019-04-28T00:26:46.268Z,84.20
2019-04-28T00:29:15.299Z,84.60
2019-04-28T00:31:44.118Z,84.10
2019-04-28T00:34:12.953Z,84.20
2019-04-28T00:36:43.284Z,83.90
2019-04-28T00:39:12.170Z,84.00
2019-04-28T00:41:42.088Z,84.00
2019-04-28T00:44:11.992Z,84.10
2019-04-28T00:46:42.384Z,83.40
2019-04-28T00:49:11.802Z,83.60
2019-04-28T00:51:41.576Z,84.00
2019-04-28T00:54:12.027Z,83.00
2019-04-28T00:56:41.859Z,83.50
2019-04-28T00:59:11.785Z,83.80
2019-04-28T01:01:53.537Z,84.20
2019-04-28T01:04:22.284Z,82.60
2019-04-28T01:06:51.989Z,82.80
2019-04-28T01:09:21.783Z,82.80
2019-04-28T01:11:53.352Z,82.10
2019-04-28T01:14:21.622Z,84.00
2019-04-28T01:16:57.468Z,82.60
2019-04-28T01:19:30.237Z,83.00
2019-04-28T01:22:12.618Z,82.60
2019-04-28T01:24:41.474Z,83.30
2019-04-28T01:27:35.570Z,83.20
2019-04-28T01:30:10.703Z,83.40
2019-04-28T01:32:44.343Z,84.00
2019-04-28T01:35:13.243Z,84.60
2019-04-28T01:37:41.988Z,84.80
2019-04-28T01:40:10.923Z,85.80
2019-04-28T01:42:41.233Z,84.90
2019-04-28T01:45:10.712Z,84.70
2019-04-28T01:47:40.487Z,84.70
2019-04-28T01:50:10.193Z,84.40
2019-04-28T01:52:39.929Z,83.70
2019-04-28T01:55:10.178Z,84.50
2019-04-28T01:57:40.012Z,83.70
2019-04-28T02:00:22.224Z,83.80
2019-04-28T02:02:42.788Z,83.50
2019-04-28T02:05:11.725Z,84.60
2019-04-28T02:07:40.790Z,85.40
2019-04-28T02:10:10.331Z,85.20
2019-04-28T02:12:40.436Z,85.20
2019-04-28T02:15:10.505Z,84.90
2019-04-28T02:17:40.123Z,84.60
2019-04-28T02:20:10.403Z,84.80
2019-04-28T02:23:02.386Z,85.30
2019-04-28T02:25:31.164Z,85.00
2019-04-28T02:27:59.987Z,84.90
2019-04-28T02:30:44.056Z,84.60
2019-04-28T02:33:01.568Z,85.40
2019-04-28T02:35:31.658Z,85.10
2019-04-28T02:38:00.334Z,85.20
2019-04-28T02:40:30.554Z,85.00
2019-04-28T02:43:01.236Z,84.80
2019-04-28T02:45:31.617Z,84.60
2019-04-28T02:48:03.401Z,86.30
2019-04-28T02:50:56.369Z,84.60
2019-04-28T02:53:33.072Z,84.20
2019-04-28T02:56:01.034Z,84.10
2019-04-28T02:58:31.309Z,84.70
2019-04-28T03:01:12.556Z,84.70
2019-04-28T03:03:30.988Z,85.00
2019-04-28T03:06:01.482Z,84.20
2019-04-28T03:08:30.802Z,84.80
2019-04-28T03:11:00.865Z,84.10
2019-04-28T03:13:31.092Z,84.00
2019-04-28T03:16:01.471Z,84.30
2019-04-28T03:18:31.686Z,84.50
2019-04-28T03:21:03.567Z,85.60
2019-04-28T03:23:31.394Z,86.20
2019-04-28T03:26:25.241Z,86.80
2019-04-28T03:29:10.801Z,86.50
2019-04-28T03:32:16.469Z,86.80
2019-04-28T03:34:23.336Z,86.60
2019-04-28T03:36:52.157Z,86.60
2019-04-28T03:39:21.021Z,87.60
2019-04-28T03:41:50.277Z,86.60
2019-04-28T03:44:20.855Z,85.90
2019-04-28T03:46:52.956Z,86.40
2019-04-28T03:49:32.174Z,86.00
2019-04-28T03:52:05.562Z,86.00
2019-04-28T03:54:34.630Z,85.00
2019-04-28T03:57:03.573Z,85.10
2019-04-28T03:59:32.407Z,84.70
2019-04-28T04:02:03.405Z,84.20
2019-04-28T04:04:32.330Z,84.70
2019-04-28T04:07:01.704Z,85.30
2019-04-28T04:09:41.656Z,85.10
2019-04-28T04:12:26.606Z,84.50
2019-04-28T04:15:04.846Z,84.30
2019-04-28T04:17:37.777Z,84.90
2019-04-28T04:20:07.472Z,84.40
2019-04-28T04:22:36.237Z,84.30
2019-04-28T04:25:08.756Z,85.30
2019-04-28T04:27:35.916Z,85.50
2019-04-28T04:30:04.959Z,85.00
2019-04-28T04:32:34.182Z,85.40
2019-04-28T04:35:02.991Z,84.70
2019-04-28T04:37:31.756Z,84.60
2019-04-28T04:40:01.195Z,83.80
2019-04-28T04:42:30.912Z,84.50
2019-04-28T04:45:00.567Z,84.80
2019-04-28T04:47:32.554Z,84.50
2019-04-28T04:50:00.392Z,85.30
2019-04-28T04:52:30.429Z,84.70
2019-04-28T04:55:01.312Z,84.80
2019-04-28T04:57:32.242Z,84.40
2019-04-28T05:00:02.049Z,84.80
2019-04-28T05:02:51.167Z,84.80
2019-04-28T05:05:40.333Z,84.90
2019-04-28T05:08:10.151Z,84.60
2019-04-28T05:10:40.427Z,85.30
2019-04-28T05:13:10.195Z,84.90
2019-04-28T05:15:40.057Z,84.70
2019-04-28T05:18:10.137Z,84.30
2019-04-28T05:20:40.397Z,84.50
2019-04-28T05:23:15.932Z,84.50
2019-04-28T05:25:44.708Z,83.90
2019-04-28T05:28:13.563Z,83.60
2019-04-28T05:30:43.142Z,83.60
2019-04-28T05:33:30.733Z,83.60
2019-04-28T05:36:01.048Z,84.20
2019-04-28T05:38:30.192Z,83.90
2019-04-28T05:41:02.325Z,83.70
2019-04-28T05:43:29.914Z,83.70
2019-04-28T05:46:00.311Z,84.10
2019-04-28T05:48:54.299Z,84.10
2019-04-28T05:51:24.479Z,84.40
2019-04-28T05:54:00.273Z,84.30
2019-04-28T05:56:35.949Z,85.20
2019-04-28T05:59:09.823Z,84.80
2019-04-28T06:01:56.359Z,85.10
2019-04-28T06:04:27.223Z,85.80
2019-04-28T06:07:00.788Z,85.30
2019-04-28T06:09:36.255Z,85.60
2019-04-28T06:12:06.522Z,85.20
2019-04-28T06:14:35.283Z,84.90
2019-04-28T06:17:04.358Z,85.30
2019-04-28T06:19:33.136Z,85.30
2019-04-28T06:22:01.967Z,86.10
2019-04-28T06:24:30.740Z,84.80
2019-04-28T06:26:59.554Z,85.60
2019-04-28T06:29:28.311Z,85.60
2019-04-28T06:31:57.115Z,85.30
2019-04-28T06:34:25.971Z,85.50
2019-04-28T06:36:54.838Z,85.50
2019-04-28T06:39:23.628Z,85.00
2019-04-28T06:41:52.416Z,84.30
2019-04-28T06:44:21.189Z,84.30
2019-04-28T06:46:50.000Z,83.90
2019-04-28T06:49:18.820Z,85.20
2019-04-28T06:51:47.727Z,85.20
2019-04-28T06:54:16.546Z,85.30
2019-04-28T06:56:45.591Z,85.70
2019-04-28T06:59:14.501Z,85.80
2019-04-28T07:01:43.462Z,83.60
2019-04-28T07:04:12.244Z,83.60
2019-04-28T07:06:41.071Z,83.20
2019-04-28T07:09:10.017Z,84.60
2019-04-28T07:11:39.119Z,83.50
2019-04-28T07:14:07.962Z,83.40
2019-04-28T07:16:37.115Z,83.00
2019-04-28T07:19:06.159Z,83.10
2019-04-28T07:21:40.094Z,83.70
2019-04-28T07:24:09.011Z,83.60
2019-04-28T07:26:37.925Z,84.00
2019-04-28T07:29:06.871Z,83.70
2019-04-28T07:31:35.780Z,84.20
2019-04-28T07:34:04.711Z,84.50
2019-04-28T07:36:33.761Z,83.20
2019-04-28T07:39:02.587Z,83.60
2019-04-28T07:41:31.436Z,83.40
2019-04-28T07:44:00.444Z,84.00
2019-04-28T07:46:29.311Z,83.90
2019-04-28T07:48:58.238Z,84.10
2019-04-28T07:51:30.654Z,83.60
2019-04-28T07:54:05.005Z,84.00
2019-04-28T07:56:33.843Z,83.40
2019-04-28T07:59:02.742Z,83.60
2019-04-28T08:01:31.692Z,82.30
2019-04-28T08:04:02.292Z,82.80
2019-04-28T08:06:31.153Z,82.60
2019-04-28T08:09:02.397Z,82.50
2019-04-28T08:11:30.801Z,80.90
2019-04-28T08:14:00.903Z,81.60
2019-04-28T08:16:29.807Z,81.70
2019-04-28T08:18:58.792Z,82.20
2019-04-28T08:21:27.772Z,80.90
2019-04-28T08:23:56.656Z,79.50
2019-04-28T08:26:25.562Z,81.50
2019-04-28T08:28:54.587Z,82.50
2019-04-28T08:31:26.255Z,80.20
2019-04-28T08:34:02.675Z,80.50
2019-04-28T08:36:30.904Z,79.80
2019-04-28T08:38:59.816Z,80.20
2019-04-28T08:41:28.766Z,80.10
2019-04-28T08:43:57.656Z,78.90
2019-04-28T08:46:26.558Z,79.10
2019-04-28T08:48:55.352Z,80.30
2019-04-28T08:51:24.473Z,79.30
2019-04-28T08:53:53.391Z,80.00
2019-04-28T08:56:22.231Z,79.10
2019-04-28T08:58:51.266Z,78.40
2019-04-28T09:01:20.105Z,79.00
2019-04-28T09:03:51.960Z,78.00
2019-04-28T09:06:20.896Z,78.90
2019-04-28T09:08:49.722Z,77.80
2019-04-28T09:11:18.707Z,78.80
2019-04-28T09:13:47.918Z,78.10
2019-04-28T09:16:16.731Z,77.40
2019-04-28T09:18:45.733Z,77.90
2019-04-28T09:21:14.535Z,77.80
2019-04-28T09:23:43.464Z,77.90
2019-04-28T09:26:12.493Z,78.90
2019-04-28T09:28:41.234Z,78.00
2019-04-28T09:31:10.112Z,77.00
2019-04-28T09:33:39.031Z,75.90
2019-04-28T09:36:08.056Z,77.00
2019-04-28T09:38:36.887Z,77.90
2019-04-28T09:41:08.334Z,78.20
2019-04-28T09:43:54.868Z,75.50
2019-04-28T09:46:27.139Z,75.70
2019-04-28T09:48:55.924Z,75.60
2019-04-28T09:51:24.727Z,75.90
2019-04-28T09:53:53.687Z,73.80
2019-04-28T09:56:22.533Z,73.40
2019-04-28T09:58:51.470Z,71.40
2019-04-28T10:01:20.348Z,71.00
2019-04-28T10:03:49.199Z,71.40
2019-04-28T10:06:18.030Z,73.20
2019-04-28T10:08:47.258Z,71.50
2019-04-28T10:11:29.731Z,71.20
2019-04-28T10:13:47.540Z,69.30
2019-04-28T10:16:16.842Z,70.30
2019-04-28T10:18:45.933Z,68.80
2019-04-28T10:21:14.909Z,69.10
2019-04-28T10:23:44.097Z,68.50
2019-04-28T10:26:13.243Z,69.70
2019-04-28T10:28:42.127Z,69.70
2019-04-28T10:31:13.333Z,68.00
2019-04-28T10:33:43.203Z,64.40
2019-04-28T10:36:12.584Z,65.30
2019-04-28T10:38:43.158Z,64.60
2019-04-28T10:41:33.130Z,65.80
2019-04-28T10:44:02.021Z,65.00
2019-04-28T10:46:30.939Z,64.00
2019-04-28T10:49:00.392Z,62.50
2019-04-28T10:51:29.208Z,59.60
2019-04-28T10:53:58.121Z,60.40
2019-04-28T10:56:27.067Z,59.60
2019-04-28T10:58:56.425Z,58.10
2019-04-28T11:01:25.424Z,58.20
2019-04-28T11:03:56.196Z,57.40
2019-04-28T11:06:25.219Z,56.70
2019-04-28T11:09:30.805Z,56.40
2019-04-28T11:11:56.363Z,56.30
2019-04-28T11:14:26.582Z,58.50
2019-04-28T11:16:55.964Z,59.70
2019-04-28T11:19:25.138Z,59.40
2019-04-28T11:21:54.222Z,58.80
2019-04-28T11:24:23.318Z,59.30
2019-04-28T11:26:52.552Z,56.90
2019-04-28T11:29:21.568Z,55.50
2019-04-28T11:31:50.718Z,56.90
2019-04-28T11:34:31.038Z,58.30
2019-04-28T11:36:59.676Z,58.30
2019-04-28T11:39:31.929Z,58.80
2019-04-28T11:42:00.912Z,61.70
2019-04-28T11:44:30.325Z,59.70
2019-04-28T11:46:59.661Z,62.50
2019-04-28T11:49:28.706Z,59.10
2019-04-28T11:51:57.897Z,62.10
2019-04-28T11:54:26.945Z,60.80
2019-04-28T11:56:56.251Z,61.60
2019-04-28T11:59:25.329Z,62.50
2019-04-28T12:01:54.329Z,64.80
2019-04-28T12:04:23.575Z,65.50
2019-04-28T12:06:52.456Z,66.50
2019-04-28T12:09:32.665Z,67.00
2019-04-28T12:12:02.349Z,67.70
2019-04-28T12:14:48.968Z,69.00
2019-04-28T12:17:36.874Z,69.20
2019-04-28T12:20:13.286Z,70.50
2019-04-28T12:22:42.076Z,72.00
2019-04-28T12:25:11.215Z,72.90
2019-04-28T12:27:39.986Z,73.00
2019-04-28T12:30:09.027Z,73.10
2019-04-28T12:32:37.926Z,73.60
2019-04-28T12:35:07.091Z,74.70
2019-04-28T12:37:35.892Z,75.80
2019-04-28T12:40:05.415Z,76.70
2019-04-28T12:42:34.337Z,76.40
2019-04-28T12:45:03.187Z,76.10
2019-04-28T12:47:31.926Z,76.40
2019-04-28T12:50:11.317Z,76.90
2019-04-28T12:52:40.227Z,76.70
2019-04-28T12:55:09.369Z,76.90
2019-04-28T12:57:38.399Z,77.90
2019-04-28T13:00:24.060Z,76.40
2019-04-28T13:03:10.506Z,75.90
2019-04-28T13:05:40.535Z,73.90
2019-04-28T13:08:09.331Z,76.00
2019-04-28T13:10:38.235Z,76.20
2019-04-28T13:13:07.409Z,76.10
2019-04-28T13:15:36.524Z,76.50
2019-04-28T13:18:05.624Z,75.70
2019-04-28T13:20:34.529Z,74.50
2019-04-28T13:23:03.391Z,75.20
2019-04-28T13:25:32.247Z,73.70
2019-04-28T13:28:01.461Z,73.30
2019-04-28T13:30:30.250Z,72.10
2019-04-28T13:32:59.038Z,73.30
2019-04-28T13:35:28.076Z,74.50
2019-04-28T13:37:56.843Z,72.30
2019-04-28T13:40:29.374Z,72.90
2019-04-28T13:42:58.232Z,71.60
2019-04-28T13:45:27.477Z,72.50
2019-04-28T13:47:56.239Z,69.70
2019-04-28T13:50:32.713Z,68.30
2019-04-28T13:53:01.489Z,69.00
2019-04-28T13:55:44.950Z,67.80
2019-04-28T13:58:13.735Z,68.60
2019-04-28T14:01:07.600Z,68.70
2019-04-28T14:03:49.800Z,67.50
2019-04-28T14:06:28.054Z,67.40
2019-04-28T14:08:50.102Z,66.40
2019-04-28T14:11:18.954Z,65.80
2019-04-28T14:13:47.793Z,66.30
2019-04-28T14:16:16.651Z,65.40
2019-04-28T14:18:45.496Z,66.40
2019-04-28T14:21:14.439Z,63.50
2019-04-28T14:23:43.205Z,64.20
2019-04-28T14:26:12.430Z,63.90
2019-04-28T14:28:41.295Z,63.00
2019-04-28T14:31:10.346Z,64.40
2019-04-28T14:33:39.228Z,62.50
2019-04-28T14:36:10.525Z,61.00
2019-04-28T14:38:39.467Z,60.90
2019-04-28T14:41:09.570Z,61.70
2019-04-28T14:43:38.448Z,64.10
2019-04-28T14:46:07.393Z,62.40
2019-04-28T14:48:36.286Z,63.60
2019-04-28T14:51:05.235Z,62.40
2019-04-28T14:53:34.254Z,64.10
2019-04-28T14:56:03.143Z,65.60
2019-04-28T14:58:31.997Z,66.20
2019-04-28T15:01:08.300Z,66.80
2019-04-28T15:03:39.628Z,64.70
2019-04-28T15:06:18.621Z,65.60
2019-04-28T15:08:55.203Z,62.80
2019-04-28T15:11:34.261Z,61.60
2019-04-28T15:14:03.263Z,62.70
2019-04-28T15:16:32.045Z,63.80
2019-04-28T15:19:00.849Z,60.00
2019-04-28T15:21:29.707Z,61.80
2019-04-28T15:23:58.928Z,60.20
2019-04-28T15:26:28.039Z,60.90
2019-04-28T15:28:57.171Z,61.10
2019-04-28T15:31:25.940Z,60.70
2019-04-28T15:33:54.948Z,60.90
2019-04-28T15:36:24.025Z,60.20
2019-04-28T15:38:52.855Z,61.00
2019-04-28T15:41:22.179Z,60.30
2019-04-28T15:43:51.269Z,60.20
2019-04-28T15:46:20.177Z,60.20
2019-04-28T15:48:49.078Z,60.50
2019-04-28T15:51:18.155Z,59.90
2019-04-28T15:53:48.894Z,59.60
2019-04-28T15:56:30.042Z,59.20
2019-04-28T15:58:58.812Z,58.90
2019-04-28T16:01:27.928Z,57.80
2019-04-28T16:03:58.811Z,56.90
2019-04-28T16:06:27.735Z,56.40
2019-04-28T16:09:00.234Z,57.20
2019-04-28T16:11:29.159Z,56.80
2019-04-28T16:13:58.140Z,57.80
2019-04-28T16:16:27.276Z,56.50
2019-04-28T16:18:56.122Z,57.10
2019-04-28T16:21:25.255Z,57.40
2019-04-28T16:23:54.036Z,59.10
2019-04-28T16:26:23.154Z,59.20
2019-04-28T16:28:52.292Z,62.10
2019-04-28T16:31:21.079Z,63.00
2019-04-28T16:33:49.902Z,63.70
2019-04-28T16:36:18.701Z,63.20
2019-04-28T16:38:47.671Z,64.00
2019-04-28T16:41:26.200Z,63.90
2019-04-28T16:44:10.629Z,63.60
2019-04-28T16:46:40.521Z,63.80
2019-04-28T16:49:09.299Z,64.30
2019-04-28T16:51:38.109Z,64.40
2019-04-28T16:54:06.977Z,65.10
2019-04-28T16:56:45.087Z,63.90
2019-04-28T16:59:26.171Z,63.90
2019-04-28T17:02:14.439Z,66.60
2019-04-28T17:04:43.579Z,64.30
2019-04-28T17:07:12.743Z,64.70
2019-04-28T17:09:41.627Z,65.00
2019-04-28T17:12:10.595Z,66.90
2019-04-28T17:14:39.469Z,63.90
2019-04-28T17:17:08.412Z,65.00
2019-04-28T17:19:39.099Z,64.30
2019-04-28T17:22:08.288Z,64.90
2019-04-28T17:24:37.079Z,64.50
2019-04-28T17:27:06.027Z,64.40
2019-04-28T17:29:37.756Z,65.70
2019-04-28T17:32:05.606Z,64.30
2019-04-28T17:34:34.376Z,65.60
2019-04-28T17:37:04.932Z,65.80
2019-04-28T17:39:34.117Z,66.40
2019-04-28T17:42:04.371Z,66.30
2019-04-28T17:44:33.329Z,67.10
2019-04-28T17:47:02.185Z,67.80
2019-04-28T17:49:35.772Z,66.70
2019-04-28T17:52:06.140Z,66.40
2019-04-28T17:54:35.134Z,64.80
2019-04-28T17:57:04.944Z,65.10
2019-04-28T17:59:33.780Z,65.00
2019-04-28T18:02:28.253Z,65.30
2019-04-28T18:05:07.101Z,63.80
2019-04-28T18:07:37.468Z,65.10
2019-04-28T18:10:07.705Z,63.70
2019-04-28T18:12:36.724Z,63.60
2019-04-28T18:15:26.724Z,64.10
2019-04-28T18:18:09.512Z,64.60
2019-04-28T18:20:38.385Z,64.70
2019-04-28T18:23:07.264Z,65.90
2019-04-28T18:25:36.170Z,66.90
2019-04-28T18:28:05.036Z,66.30
2019-04-28T18:30:36.592Z,66.70
2019-04-28T18:33:30.730Z,66.90
2019-04-28T18:36:12.820Z,68.50
2019-04-28T18:38:50.302Z,68.70
2019-04-28T18:41:47.261Z,69.40
2019-04-28T18:44:19.281Z,70.00
2019-04-28T18:46:48.417Z,70.90
2019-04-28T18:49:17.240Z,70.90
2019-04-28T18:51:46.747Z,71.50
2019-04-28T18:54:15.848Z,72.20
2019-04-28T18:56:44.699Z,72.70
2019-04-28T18:59:13.551Z,72.00
2019-04-28T19:01:48.655Z,72.00
2019-04-28T19:04:18.520Z,71.80
2019-04-28T19:06:47.857Z,72.60
2019-04-28T19:09:35.144Z,71.60
2019-04-28T19:12:18.317Z,71.80
2019-04-28T19:14:53.325Z,71.30
2019-04-28T19:17:40.043Z,70.70
2019-04-28T19:20:09.103Z,70.40
2019-04-28T19:22:44.708Z,71.10
2019-04-28T19:25:14.459Z,71.30
2019-04-28T19:27:43.528Z,72.40
2019-04-28T19:30:13.141Z,72.40
2019-04-28T19:32:42.281Z,71.60
2019-04-28T19:35:11.241Z,71.10
2019-04-28T19:37:40.429Z,71.70
2019-04-28T19:40:09.388Z,72.30
2019-04-28T19:42:38.311Z,73.30
2019-04-28T19:45:12.018Z,73.50
2019-04-28T19:47:40.919Z,73.70
2019-04-28T19:50:09.936Z,73.50
2019-04-28T19:52:42.515Z,73.80
2019-04-28T19:55:19.812Z,74.70
2019-04-28T19:58:05.212Z,73.60
2019-04-28T20:00:39.100Z,73.30
2019-04-28T20:03:08.084Z,73.30
2019-04-28T20:05:37.000Z,73.90
2019-04-28T20:08:05.824Z,74.60
2019-04-28T20:10:34.627Z,74.50
2019-04-28T20:13:03.811Z,74.20
2019-04-28T20:15:32.792Z,75.10
2019-04-28T20:18:01.617Z,74.90
2019-04-28T20:20:30.389Z,74.80
2019-04-28T20:22:59.213Z,74.80
2019-04-28T20:25:28.018Z,75.40
2019-04-28T20:27:56.847Z,76.70
2019-04-28T20:30:25.820Z,75.80
2019-04-28T20:33:06.454Z,75.20
2019-04-28T20:35:28.873Z,75.40
2019-04-28T20:38:25.823Z,75.10
2019-04-28T20:41:00.954Z,75.40
2019-04-28T20:43:29.955Z,75.40
2019-04-28T20:45:58.707Z,75.80
2019-04-28T20:48:27.651Z,75.20
2019-04-28T20:50:56.612Z,75.70
2019-04-28T20:53:25.522Z,76.40
2019-04-28T20:55:54.279Z,76.00
2019-04-28T20:58:23.092Z,76.00
2019-04-28T21:00:51.935Z,77.40
2019-04-28T21:03:20.695Z,76.40
2019-04-28T21:05:49.459Z,76.40
2019-04-28T21:08:18.212Z,76.80
2019-04-28T21:10:47.374Z,77.10
2019-04-28T21:13:16.190Z,77.30
2019-04-28T21:15:44.989Z,77.30
2019-04-28T21:18:13.778Z,77.40
2019-04-28T21:20:42.679Z,77.80
2019-04-28T21:23:11.452Z,77.90
2019-04-28T21:25:40.244Z,78.20
2019-04-28T21:28:09.080Z,77.90
2019-04-28T21:30:38.004Z,78.20
2019-04-28T21:33:06.801Z,78.50
2019-04-28T21:35:35.648Z,79.00
2019-04-28T21:38:04.431Z,79.00
2019-04-28T21:40:33.288Z,79.30
2019-04-28T21:43:19.829Z,79.60
2019-04-28T21:45:58.577Z,80.00
2019-04-28T21:48:36.960Z,80.20
2019-04-28T21:51:05.877Z,80.50
2019-04-28T21:53:34.871Z,80.70
2019-04-28T21:56:03.709Z,80.90
2019-04-28T21:58:33.608Z,80.90
2019-04-28T22:01:03.224Z,80.80
2019-04-28T22:03:32.141Z,81.00
2019-04-28T22:06:00.907Z,81.20
2019-04-28T22:08:29.691Z,81.70
2019-04-28T22:10:58.791Z,81.80
2019-04-28T22:13:27.553Z,82.30
2019-04-28T22:15:56.318Z,82.40
2019-04-28T22:18:25.256Z,82.30
2019-04-28T22:20:54.076Z,82.30
2019-04-28T22:23:29.329Z,82.00
2019-04-28T22:25:58.239Z,82.10
2019-04-28T22:28:26.985Z,82.00
2019-04-28T22:30:55.881Z,82.10
2019-04-28T22:33:24.668Z,82.30
2019-04-28T22:35:53.477Z,82.30
2019-04-28T22:38:22.295Z,82.50
2019-04-28T22:40:51.087Z,82.60
2019-04-28T22:43:19.911Z,82.70
2019-04-28T22:45:48.671Z,82.90
2019-04-28T22:48:22.200Z,83.50
2019-04-28T22:50:51.560Z,83.70
2019-04-28T22:53:23.335Z,83.90
2019-04-28T22:56:02.056Z,84.00
2019-04-28T22:58:45.797Z,84.20
2019-04-28T23:01:28.011Z,84.30
2019-04-28T23:04:06.533Z,84.10
2019-04-28T23:06:35.514Z,84.10
2019-04-28T23:09:05.342Z,84.40
2019-04-28T23:11:34.088Z,84.70
2019-04-28T23:14:02.980Z,84.50
2019-04-28T23:16:31.806Z,84.40
2019-04-28T23:19:02.964Z,84.50
2019-04-28T23:21:39.568Z,84.30
2019-04-28T23:24:08.402Z,84.30
2019-04-28T23:26:37.163Z,84.00
2019-04-28T23:29:05.991Z,84.00
2019-04-28T23:31:35.005Z,83.50
2019-04-28T23:34:03.860Z,83.90
2019-04-28T23:36:32.625Z,83.50
2019-04-28T23:39:01.361Z,83.90
2019-04-28T23:42:04.348Z,84.20
2019-04-28T23:44:33.119Z,83.50
2019-04-28T23:47:03.429Z,82.70
2019-04-28T23:49:32.183Z,83.20
2019-04-28T23:52:13.410Z,82.90
2019-04-28T23:54:44.350Z,83.10
2019-04-28T23:57:13.188Z,83.60
2019-04-28T23:59:41.950Z,83.70
